Time;durP1;ratioP1;P1;durP2;ratioP2;P2;SDS_P1;SDS_P2;PMS_P1;PMS_P2;Temp;Humidity;BMP_temperature;BMP_pressure;BME280_temperature;BME280_humidity;BME280_pressure;Samples;Min_cycle;Max_cycle;Signal;HPM_P1;HPM_P2
2021/03/03 00:04:30;;;;;;;22.93;12.10;;;;;;;4.33;83.07;96060.94;10283427;28;20278;-74
2021/03/03 00:09:30;;;;;;;24.13;11.50;;;;;;;4.30;82.03;96064.81;10287975;28;20780;-74
2021/03/03 00:14:30;;;;;;;22.40;10.87;;;;;;;4.30;82.36;96064.81;10336547;28;20034;-74
2021/03/03 00:19:31;;;;;;;18.60;10.07;;;;;;;4.19;81.35;96058.22;10296849;28;20365;-74
2021/03/03 00:24:31;;;;;;;21.70;11.50;;;;;;;4.18;82.46;96058.44;10296057;28;20027;-74
2021/03/03 00:29:32;;;;;;;19.55;11.35;;;;;;;4.19;81.66;96060.06;10296190;28;20297;-74
2021/03/03 00:34:32;;;;;;;20.77;10.57;;;;;;;4.23;80.31;96062.13;10300104;28;20414;-77
2021/03/03 00:39:32;;;;;;;19.85;9.88;;;;;;;4.17;81.27;96068.25;10298809;28;20449;-77
2021/03/03 00:44:33;;;;;;;20.70;10.15;;;;;;;4.11;81.79;96063.72;10297486;28;20033;-77
2021/03/03 00:49:33;;;;;;;23.15;10.35;;;;;;;3.93;83.95;96056.28;10298842;28;20107;-77
2021/03/03 00:54:34;;;;;;;20.47;10.03;;;;;;;3.96;83.35;96058.53;10298980;28;20073;-77
2021/03/03 00:59:35;;;;;;;19.40;10.00;;;;;;;4.00;84.57;96059.78;10299067;28;20301;-77
2021/03/03 01:04:37;;;;;;;17.33;9.18;;;;;;;4.08;84.01;96053.50;10297920;28;20125;-77
2021/03/03 01:09:37;;;;;;;23.67;10.23;;;;;;;4.07;85.02;96059.81;10296777;28;20735;-77
2021/03/03 01:14:38;;;;;;;23.37;11.17;;;;;;;3.98;85.14;96063.66;10297225;28;20030;-78
2021/03/03 01:19:38;;;;;;;17.95;9.60;;;;;;;4.02;85.36;96060.44;10297240;28;20058;-78
2021/03/03 01:24:40;;;;;;;18.98;9.55;;;;;;;3.96;85.97;96066.53;10286966;28;20022;-77
2021/03/03 01:29:40;;;;;;;22.33;9.32;;;;;;;4.03;88.04;96055.91;10287789;28;20031;-78
2021/03/03 01:34:40;;;;;;;21.30;10.20;;;;;;;3.93;87.96;96062.44;10288287;28;20041;-75
2021/03/03 01:39:41;;;;;;;17.92;8.55;;;;;;;3.90;88.90;96062.81;10285368;28;20062;-76
2021/03/03 01:44:41;;;;;;;21.05;9.98;;;;;;;3.84;89.24;96066.28;10286168;28;20610;-76
2021/03/03 01:49:42;;;;;;;21.13;10.00;;;;;;;3.88;89.08;96064.03;10285818;28;20035;-75
2021/03/03 01:54:43;;;;;;;22.30;11.43;;;;;;;3.90;89.38;96068.13;10286644;28;20296;-76
2021/03/03 01:59:43;;;;;;;20.15;9.52;;;;;;;3.88;91.46;96064.88;10287318;28;20031;-76
2021/03/03 02:04:44;;;;;;;19.73;10.38;;;;;;;3.75;90.78;96065.63;10326075;28;20069;-76
2021/03/03 02:10:02;;;;;;;20.58;12.07;;;;;;;3.42;88.18;96066.25;10326046;28;20026;-77
2021/03/03 02:15:06;;;;;;;25.67;12.38;;;;;;;3.19;89.36;96071.81;10328011;28;20541;-77
2021/03/03 02:20:10;;;;;;;19.38;10.70;;;;;;;2.93;89.77;96082.25;10326234;28;20030;-76
2021/03/03 02:25:30;;;;;;;23.13;11.55;;;;;;;2.64;92.18;96095.47;10327535;28;20026;-77
2021/03/03 02:30:32;;;;;;;21.63;12.40;;;;;;;2.23;95.52;96101.34;10326600;28;20030;-77
2021/03/03 02:35:33;;;;;;;33.70;14.10;;;;;;;1.99;100.00;96113.94;10325718;28;20033;-76
2021/03/03 02:40:34;;;;;;;29.25;14.65;;;;;;;1.93;100.00;96114.69;10324603;28;20054;-76
2021/03/03 02:45:35;;;;;;;32.65;15.43;;;;;;;1.87;100.00;96110.94;10325617;28;20026;-76
2021/03/03 02:50:36;;;;;;;34.53;17.60;;;;;;;1.71;100.00;96111.94;10326202;28;20023;-76
2021/03/03 02:55:36;;;;;;;40.45;17.40;;;;;;;1.64;100.00;96112.88;10325799;28;20022;-76
2021/03/03 03:00:40;;;;;;;30.30;15.70;;;;;;;1.32;100.00;96112.19;10324226;28;20022;-76
2021/03/03 03:05:45;;;;;;;27.55;15.20;;;;;;;1.12;100.00;96118.00;10325311;28;20266;-76
2021/03/03 03:10:47;;;;;;;34.22;15.32;;;;;;;0.92;100.00;96122.16;10325209;28;20034;-76
2021/03/03 03:15:49;;;;;;;36.10;17.35;;;;;;;0.81;100.00;96120.75;10322031;28;20899;-76
2021/03/03 03:20:52;;;;;;;36.90;17.65;;;;;;;0.76;100.00;96118.63;10322194;28;20071;-76
2021/03/03 03:25:54;;;;;;;38.90;18.27;;;;;;;0.91;100.00;96131.94;10321349;28;20105;-76
2021/03/03 03:30:56;;;;;;;33.22;18.15;;;;;;;0.89;100.00;96122.50;10323073;28;20490;-76
2021/03/03 03:35:58;;;;;;;27.73;14.73;;;;;;;0.89;100.00;96133.91;10323000;28;20037;-76
2021/03/03 03:41:01;;;;;;;30.33;12.52;;;;;;;0.97;100.00;96141.78;10323258;28;20053;-77
2021/03/03 03:46:03;;;;;;;23.60;13.00;;;;;;;0.93;100.00;96137.84;10323306;28;20666;-76
2021/03/03 03:51:07;;;;;;;26.98;12.02;;;;;;;0.84;100.00;96133.66;10322378;28;20019;-76
2021/03/03 03:56:08;;;;;;;17.45;10.15;;;;;;;0.72;100.00;96133.22;10321904;28;20019;-76
2021/03/03 04:01:08;;;;;;;23.33;11.02;;;;;;;0.81;100.00;96126.03;10323178;28;20027;-76
2021/03/03 04:06:08;;;;;;;21.50;10.35;;;;;;;0.88;100.00;96131.44;10322320;28;20541;-77
2021/03/03 04:11:09;;;;;;;20.20;10.73;;;;;;;0.96;100.00;96132.22;10320720;28;20038;-77
2021/03/03 04:16:09;;;;;;;26.02;11.70;;;;;;;0.98;100.00;96138.16;10322950;28;20380;-77
2021/03/03 04:21:10;;;;;;;21.07;11.30;;;;;;;0.99;100.00;96152.19;10323933;28;20042;-77
2021/03/03 04:26:10;;;;;;;19.60;10.45;;;;;;;0.98;100.00;96145.28;10322800;28;20272;-77
2021/03/03 04:31:10;;;;;;;22.47;10.53;;;;;;;0.81;100.00;96149.84;10322509;28;20027;-77
2021/03/03 04:36:11;;;;;;;24.23;10.90;;;;;;;0.81;100.00;96150.69;10323533;28;20355;-77
2021/03/03 04:41:11;;;;;;;24.17;11.13;;;;;;;0.73;100.00;96150.75;10323306;28;20058;-77
2021/03/03 04:46:12;;;;;;;27.73;10.83;;;;;;;0.54;100.00;96145.91;10323690;28;20265;-77
2021/03/03 04:51:12;;;;;;;25.57;11.37;;;;;;;0.54;100.00;96152.03;10323982;28;20280;-77
2021/03/03 04:56:12;;;;;;;27.67;13.57;;;;;;;0.56;100.00;96160.63;10322943;28;20293;-77
2021/03/03 05:01:13;;;;;;;34.88;14.20;;;;;;;0.47;100.00;96159.00;10330611;28;20022;-74
2021/03/03 05:06:13;;;;;;;35.83;14.63;;;;;;;0.42;100.00;96156.06;10328920;28;20030;-76
2021/03/03 05:11:14;;;;;;;33.07;15.10;;;;;;;0.40;100.00;96160.72;10327708;28;20085;-74
2021/03/03 05:16:14;;;;;;;29.80;13.65;;;;;;;0.34;100.00;96175.47;10327647;28;20289;-74
2021/03/03 05:21:14;;;;;;;34.50;16.48;;;;;;;0.45;100.00;96169.78;10316630;28;20479;-74
2021/03/03 05:26:15;;;;;;;31.17;16.00;;;;;;;0.64;100.00;96162.38;10295892;28;20096;-79
2021/03/03 05:31:16;;;;;;;33.70;15.23;;;;;;;0.92;100.00;96157.41;10328672;28;20496;-74
2021/03/03 05:36:16;;;;;;;34.17;17.10;;;;;;;1.31;100.00;96156.41;10327191;28;20034;-74
2021/03/03 05:41:21;;;;;;;30.50;16.23;;;;;;;1.78;100.00;96165.03;10324772;28;20054;-75
2021/03/03 05:46:22;;;;;;;41.85;15.50;;;;;;;2.38;100.00;96167.66;10325813;28;20331;-74
2021/03/03 05:51:24;;;;;;;34.47;16.33;;;;;;;2.98;100.00;96159.50;10326070;28;20038;-74
2021/03/03 05:56:25;;;;;;;49.67;17.52;;;;;;;3.61;100.00;96156.13;10326307;28;20713;-75
2021/03/03 06:01:26;;;;;;;51.10;18.95;;;;;;;4.24;98.82;96148.94;10325762;28;20026;-75
2021/03/03 06:06:26;;;;;;;46.70;18.73;;;;;;;4.75;95.26;96150.31;10326074;28;20029;-74
2021/03/03 06:11:27;;;;;;;36.17;17.58;;;;;;;5.30;88.73;96152.88;10325313;28;20030;-74
2021/03/03 06:16:28;;;;;;;43.47;17.07;;;;;;;5.92;86.76;96149.94;10303753;28;20027;-75
2021/03/03 06:21:30;;;;;;;41.65;18.15;;;;;;;6.39;82.27;96157.84;10283632;28;20653;-75
2021/03/03 06:26:31;;;;;;;39.60;15.68;;;;;;;6.78;83.90;96160.53;10284867;28;20019;-75
2021/03/03 06:31:33;;;;;;;44.95;18.92;;;;;;;8.07;73.87;96146.78;10284697;28;20034;-75
2021/03/03 06:36:34;;;;;;;42.08;19.50;;;;;;;8.35;74.21;96161.53;10283541;28;20401;-75
2021/03/03 06:41:38;;;;;;;44.25;17.00;;;;;;;9.03;68.71;96159.69;10284320;28;20066;-75
2021/03/03 06:46:39;;;;;;;40.70;17.15;;;;;;;10.28;60.04;96151.63;10284444;28;20370;-75
2021/03/03 06:51:39;;;;;;;35.40;18.67;;;;;;;11.86;54.23;96148.59;10283208;28;20030;-75
2021/03/03 06:56:42;;;;;;;39.67;17.55;;;;;;;12.62;49.94;96145.38;10283545;28;20486;-74
2021/03/03 07:01:45;;;;;;;33.85;15.63;;;;;;;13.64;46.14;96145.59;10282954;28;20026;-74
2021/03/03 07:06:45;;;;;;;37.40;16.40;;;;;;;14.32;43.26;96128.78;10325044;28;20014;-74
2021/03/03 07:11:46;;;;;;;36.42;16.08;;;;;;;14.64;43.00;96135.19;10362530;28;20029;-75
2021/03/03 07:17:02;;;;;;;35.38;16.20;;;;;;;15.17;41.81;96132.38;10344940;28;20034;-75
2021/03/03 07:22:05;;;;;;;44.25;19.23;;;;;;;14.22;41.70;96127.91;10321959;28;20423;-75
2021/03/03 07:27:06;;;;;;;48.63;22.38;;;;;;;13.44;43.65;96132.75;10322188;28;20018;-75
2021/03/03 07:32:06;;;;;;;53.05;23.30;;;;;;;13.13;44.22;96120.81;10309909;28;20033;-75
2021/03/03 07:37:08;;;;;;;47.05;22.17;;;;;;;14.04;43.94;96110.22;10362223;28;20038;-75
2021/03/03 07:42:12;;;;;;;39.22;19.30;;;;;;;14.22;44.03;96108.97;10341030;28;20481;-75
2021/03/03 07:47:15;;;;;;;44.33;19.88;;;;;;;14.56;43.96;96109.41;10322507;28;20038;-74
2021/03/03 07:52:18;;;;;;;54.53;22.50;;;;;;;14.00;44.18;96105.34;10281868;28;20035;-74
2021/03/03 07:57:28;;;;;;;49.60;21.35;;;;;;;13.91;43.85;96104.22;10281967;28;20055;-75
2021/03/03 08:02:50;;;;;;;38.78;18.70;;;;;;;13.92;45.33;96097.72;10281447;28;20037;-75
2021/03/03 08:08:10;;;;;;;38.83;17.40;;;;;;;14.36;44.14;96107.44;10299340;28;20537;-74
2021/03/03 08:13:16;;;;;;;33.78;15.25;;;;;;;14.83;43.27;96103.88;10293216;28;20049;-75
2021/03/03 08:18:30;;;;;;;47.20;19.48;;;;;;;14.68;43.54;96106.53;10329147;28;20041;-74
2021/03/03 08:23:34;;;;;;;41.13;20.33;;;;;;;12.51;46.89;96112.06;10281591;28;20121;-75
2021/03/03 08:28:39;;;;;;;45.60;20.92;;;;;;;12.55;49.64;96112.38;10278238;28;20029;-75
2021/03/03 08:33:43;;;;;;;51.42;23.35;;;;;;;13.22;47.72;96108.50;10324751;28;20034;-73
2021/03/03 08:38:44;;;;;;;34.00;16.83;;;;;;;14.67;44.55;96099.47;10329559;28;20042;-73
2021/03/03 08:43:47;;;;;;;51.90;21.08;;;;;;;16.00;42.11;96081.72;10320123;28;20581;-73
2021/03/03 08:48:56;;;;;;;38.67;16.48;;;;;;;16.63;40.02;96080.44;10306579;28;20396;-73
2021/03/03 08:54:11;;;;;;;33.33;14.38;;;;;;;17.43;38.65;96065.84;10315805;28;20039;-72
2021/03/03 08:59:31;;;;;;;29.08;14.60;;;;;;;19.33;35.04;96065.59;10288942;28;20565;-73
2021/03/03 09:04:43;;;;;;;29.60;14.82;;;;;;;19.74;33.12;96064.13;10293917;28;20034;-73
2021/03/03 09:09:46;;;;;;;25.98;13.52;;;;;;;19.74;33.61;96064.91;10328824;28;20453;-73
2021/03/03 09:14:48;;;;;;;25.48;13.25;;;;;;;17.96;37.24;96056.97;10328469;28;20029;-73
2021/03/03 09:19:49;;;;;;;25.95;13.65;;;;;;;16.34;39.08;96064.78;10328792;28;20120;-73
2021/03/03 09:24:52;;;;;;;31.77;14.33;;;;;;;15.35;42.16;96068.75;10327908;28;20154;-72
2021/03/03 09:29:52;;;;;;;27.33;15.32;;;;;;;14.66;42.38;96070.78;10306571;28;20043;-72
2021/03/03 09:34:54;;;;;;;25.93;13.07;;;;;;;15.07;41.86;96061.94;10288172;28;20489;-72
2021/03/03 09:39:58;;;;;;;26.30;12.50;;;;;;;15.24;40.99;96059.81;10287280;28;20541;-72
2021/03/03 09:44:58;;;;;;;27.88;12.30;;;;;;;16.58;39.97;96049.50;10344977;28;20540;-74
2021/03/03 09:50:01;;;;;;;33.60;12.63;;;;;;;18.16;37.45;96045.06;10338255;28;20028;-74
2021/03/03 09:55:02;;;;;;;30.38;13.40;;;;;;;17.56;37.72;96039.91;10367069;28;20365;-72
2021/03/03 10:00:07;;;;;;;21.70;12.23;;;;;;;17.25;37.20;96032.81;10375487;28;20416;-72
2021/03/03 10:05:08;;;;;;;26.63;11.82;;;;;;;19.08;35.68;96017.75;10329074;28;20022;-72
2021/03/03 10:10:09;;;;;;;21.42;11.43;;;;;;;21.02;31.91;96006.19;10326935;28;20401;-72
2021/03/03 10:15:12;;;;;;;19.90;10.48;;;;;;;24.39;27.73;95991.34;10326118;28;20022;-72
2021/03/03 10:20:31;;;;;;;16.77;9.93;;;;;;;24.83;26.72;95983.66;10325673;28;20037;-73
2021/03/03 10:25:40;;;;;;;19.02;10.48;;;;;;;26.73;24.03;95974.84;10325433;28;20029;-73
2021/03/03 10:30:42;;;;;;;15.82;9.05;;;;;;;25.01;24.59;95964.28;10324336;28;20027;-73
2021/03/03 10:35:48;;;;;;;20.42;10.23;;;;;;;23.46;26.31;95955.34;10324554;28;20037;-72
2021/03/03 10:40:50;;;;;;;24.65;9.65;;;;;;;26.24;23.88;95939.84;10325727;28;20054;-72
2021/03/03 10:46:13;;;;;;;20.25;9.45;;;;;;;27.45;22.64;95927.28;10286526;28;20033;-72
2021/03/03 10:51:16;;;;;;;18.58;9.65;;;;;;;26.73;22.92;95921.66;10315273;28;20076;-72
2021/03/03 10:56:20;;;;;;;19.45;9.73;;;;;;;26.57;23.11;95910.53;10325021;28;20027;-72
2021/03/03 11:01:21;;;;;;;16.27;9.48;;;;;;;26.20;23.33;95899.56;10286028;28;20031;-72
2021/03/03 11:06:22;;;;;;;23.90;10.45;;;;;;;27.41;23.21;95893.25;10323973;28;20049;-72
2021/03/03 11:11:23;;;;;;;17.63;7.65;;;;;;;28.58;21.44;95881.84;10323942;28;20041;-72
2021/03/03 11:16:23;;;;;;;17.13;7.50;;;;;;;28.65;20.85;95864.66;10338801;28;20038;-72
2021/03/03 11:21:24;;;;;;;16.03;7.80;;;;;;;28.92;20.47;95860.03;10323450;28;20037;-72
2021/03/03 11:26:24;;;;;;;14.43;7.37;;;;;;;29.47;20.33;95857.16;10323354;28;20281;-73
2021/03/03 11:31:25;;;;;;;15.57;8.77;;;;;;;29.53;20.12;95854.88;10323685;28;20026;-72
2021/03/03 11:36:25;;;;;;;19.03;9.13;;;;;;;30.98;18.24;95839.19;10312315;28;20031;-73
2021/03/03 11:41:26;;;;;;;16.63;8.45;;;;;;;29.51;18.98;95843.34;10281878;28;20058;-72
2021/03/03 11:46:26;;;;;;;16.70;8.02;;;;;;;27.69;20.20;95833.59;10283452;28;20114;-72
2021/03/03 11:51:27;;;;;;;15.20;8.05;;;;;;;24.54;22.98;95828.59;10281447;28;20058;-72
2021/03/03 11:56:27;;;;;;;21.20;8.18;;;;;;;21.04;28.21;95842.69;10282219;28;20038;-72
2021/03/03 12:01:27;;;;;;;19.17;9.30;;;;;;;19.69;27.32;95843.28;10282506;28;20023;-72
2021/03/03 12:06:28;;;;;;;13.97;7.90;;;;;;;18.18;30.17;95841.53;10338681;28;20018;-72
2021/03/03 12:11:28;;;;;;;17.00;8.27;;;;;;;16.85;30.73;95839.19;10322638;28;20822;-72
2021/03/03 12:16:29;;;;;;;18.23;9.20;;;;;;;16.49;32.88;95838.69;10321125;28;20031;-72
2021/03/03 12:21:29;;;;;;;29.27;9.45;;;;;;;16.28;33.93;95835.34;10322125;28;20026;-73
2021/03/03 12:26:30;;;;;;;29.30;8.20;;;;;;;16.07;33.60;95835.47;10321822;28;20033;-72
2021/03/03 12:31:30;;;;;;;16.23;7.57;;;;;;;15.93;32.94;95829.06;10322392;28;20026;-72
2021/03/03 12:36:31;;;;;;;22.13;8.00;;;;;;;15.91;33.87;95828.50;10321824;28;20040;-72
2021/03/03 12:41:31;;;;;;;14.80;7.40;;;;;;;15.77;33.35;95825.56;10321839;28;20046;-72
2021/03/03 12:46:31;;;;;;;15.57;6.73;;;;;;;15.82;35.17;95815.56;10321306;28;20014;-73
2021/03/03 12:51:32;;;;;;;15.60;7.43;;;;;;;15.70;33.32;95805.00;10320701;28;20768;-72
2021/03/03 12:56:32;;;;;;;20.77;7.53;;;;;;;15.50;33.32;95815.94;10339897;28;20112;-71
2021/03/03 13:01:34;;;;;;;19.98;7.95;;;;;;;15.48;34.09;95813.50;10313016;28;20553;-73
2021/03/03 13:06:34;;;;;;;16.08;6.50;;;;;;;15.57;34.23;95813.75;10302013;28;20018;-71
2021/03/03 13:11:35;;;;;;;16.15;6.68;;;;;;;15.82;33.65;95807.44;10324871;28;20081;-71
2021/03/03 13:16:35;;;;;;;13.00;6.30;;;;;;;15.70;33.31;95798.78;10311330;28;20035;-73
2021/03/03 13:21:36;;;;;;;14.18;6.28;;;;;;;15.79;33.25;95802.56;10287300;28;20274;-73
2021/03/03 13:26:36;;;;;;;10.45;5.85;;;;;;;15.87;32.41;95795.75;10316073;28;20504;-73
2021/03/03 13:31:37;;;;;;;12.20;4.93;;;;;;;15.81;31.28;95788.72;10328308;28;20025;-73
2021/03/03 13:36:37;;;;;;;11.90;4.73;;;;;;;15.74;30.58;95789.00;10328054;28;20034;-73
2021/03/03 13:41:37;;;;;;;11.23;5.20;;;;;;;15.87;30.93;95782.97;10327756;28;20725;-73
2021/03/03 13:46:39;;;;;;;9.10;4.43;;;;;;;15.90;30.06;95776.19;10327684;28;20032;-73
2021/03/03 13:51:39;;;;;;;6.63;3.80;;;;;;;15.83;28.21;95773.78;10327849;28;20281;-73
2021/03/03 13:56:41;;;;;;;6.10;3.25;;;;;;;15.77;28.53;95765.94;10327162;28;20485;-73
2021/03/03 14:01:41;;;;;;;8.68;3.92;;;;;;;15.73;29.54;95757.56;10327069;28;20041;-73
2021/03/03 14:06:42;;;;;;;8.30;3.75;;;;;;;15.74;29.45;95745.66;10327129;28;20838;-73
2021/03/03 14:11:42;;;;;;;6.70;3.90;;;;;;;15.79;29.28;95740.22;10326782;28;20068;-73
2021/03/03 14:16:43;;;;;;;8.00;3.70;;;;;;;15.58;30.14;95734.09;10326048;28;20030;-73
2021/03/03 14:21:43;;;;;;;9.55;3.83;;;;;;;15.56;29.31;95730.84;10326708;28;20030;-72
2021/03/03 14:26:43;;;;;;;8.50;3.57;;;;;;;15.47;29.98;95729.81;10322356;28;20045;-73
2021/03/03 14:31:44;;;;;;;5.67;3.00;;;;;;;15.23;29.27;95727.75;10325541;28;20058;-72
2021/03/03 14:36:44;;;;;;;8.30;3.55;;;;;;;14.86;31.22;95732.53;10297480;28;20034;-72
2021/03/03 14:41:45;;;;;;;6.43;3.58;;;;;;;14.71;30.64;95735.28;10284244;28;20534;-73
2021/03/03 14:46:45;;;;;;;5.30;3.08;;;;;;;14.75;30.82;95738.22;10283641;28;20025;-72
2021/03/03 14:51:46;;;;;;;10.00;3.37;;;;;;;14.68;30.02;95733.13;10285889;28;20031;-72
2021/03/03 14:56:46;;;;;;;7.78;4.18;;;;;;;14.51;30.67;95730.66;10284077;28;20285;-72
2021/03/03 15:01:46;;;;;;;6.18;3.05;;;;;;;14.43;31.98;95731.22;10284255;28;20041;-72
2021/03/03 15:06:47;;;;;;;8.60;4.30;;;;;;;14.37;30.76;95719.59;10284718;28;20046;-72
2021/03/03 15:11:47;;;;;;;9.82;4.47;;;;;;;14.28;31.67;95723.97;10309289;28;20143;-72
2021/03/03 15:16:48;;;;;;;11.40;4.73;;;;;;;14.11;32.09;95719.63;10324146;28;20027;-72
2021/03/03 15:21:48;;;;;;;7.27;3.83;;;;;;;14.26;32.27;95726.09;10324224;28;20022;-72
2021/03/03 15:26:49;;;;;;;15.18;5.32;;;;;;;14.32;32.06;95723.13;10311280;28;20030;-73
2021/03/03 15:31:49;;;;;;;15.20;5.97;;;;;;;14.26;31.95;95726.09;10282069;28;20499;-73
2021/03/03 15:36:50;;;;;;;22.75;5.53;;;;;;;14.00;32.98;95718.81;10283985;28;20340;-73
2021/03/03 15:41:52;;;;;;;11.57;5.75;;;;;;;13.80;33.30;95719.63;10282182;28;20170;-73
2021/03/03 15:46:52;;;;;;;14.07;6.15;;;;;;;13.59;33.79;95721.50;10282957;28;20783;-73
2021/03/03 15:51:53;;;;;;;15.67;7.87;;;;;;;13.24;34.00;95714.09;10316053;28;20034;-72
2021/03/03 15:56:53;;;;;;;15.63;6.37;;;;;;;12.97;34.56;95715.88;10322791;28;20351;-73
2021/03/03 16:01:53;;;;;;;17.17;7.13;;;;;;;12.77;34.63;95721.22;10305249;28;20041;-73
2021/03/03 16:06:54;;;;;;;20.17;8.10;;;;;;;12.50;35.87;95732.13;10288925;28;20050;-72
2021/03/03 16:11:54;;;;;;;21.30;8.13;;;;;;;12.29;36.14;95740.06;10322765;28;20034;-73
2021/03/03 16:16:55;;;;;;;17.85;8.45;;;;;;;12.00;36.61;95745.78;10322210;28;20293;-73
2021/03/03 16:21:55;;;;;;;32.78;12.30;;;;;;;11.71;37.13;95748.72;10303590;28;20031;-73
2021/03/03 16:26:55;;;;;;;22.73;9.10;;;;;;;11.60;37.52;95753.19;10311220;28;20023;-73
2021/03/03 16:31:56;;;;;;;25.60;10.00;;;;;;;11.47;37.58;95753.63;10320907;28;20030;-73
2021/03/03 16:36:56;;;;;;;21.03;8.43;;;;;;;11.31;38.13;95755.31;10322135;28;20462;-72
2021/03/03 16:41:57;;;;;;;23.53;10.57;;;;;;;11.18;38.54;95763.78;10321558;28;20297;-72
2021/03/03 16:46:57;;;;;;;26.92;9.70;;;;;;;11.07;38.41;95765.53;10321927;28;20274;-72
2021/03/03 16:51:59;;;;;;;25.73;10.00;;;;;;;10.92;38.76;95768.84;10322358;28;20137;-73
2021/03/03 16:57:00;;;;;;;22.00;9.00;;;;;;;10.77;38.85;95766.75;10328755;28;20320;-72
2021/03/03 17:02:00;;;;;;;29.80;10.10;;;;;;;10.70;38.88;95768.81;10328757;28;20477;-73
2021/03/03 17:07:01;;;;;;;26.33;10.68;;;;;;;10.53;39.08;95768.88;10328977;28;20053;-72
2021/03/03 17:12:03;;;;;;;21.92;9.80;;;;;;;10.37;38.91;95784.75;10293748;28;20026;-74
2021/03/03 17:17:07;;;;;;;29.70;11.40;;;;;;;10.33;39.38;95788.97;10314539;28;20066;-73
2021/03/03 17:22:07;;;;;;;24.00;10.82;;;;;;;10.22;39.61;95781.81;10328239;28;20033;-72
2021/03/03 17:27:08;;;;;;;25.90;12.18;;;;;;;10.15;40.04;95784.66;10328714;28;20023;-72
2021/03/03 17:32:09;;;;;;;24.33;11.90;;;;;;;10.08;40.64;95787.50;10325142;28;20098;-73
2021/03/03 17:37:09;;;;;;;24.38;12.45;;;;;;;9.95;41.16;95792.38;10327588;28;20062;-73
2021/03/03 17:42:10;;;;;;;26.48;12.05;;;;;;;9.88;41.64;95781.81;10326672;28;20057;-73
2021/03/03 17:47:11;;;;;;;35.88;11.60;;;;;;;9.87;41.76;95785.53;10327603;28;20026;-73
2021/03/03 17:52:11;;;;;;;26.00;11.88;;;;;;;9.79;41.97;95777.88;10327092;28;20080;-72
2021/03/03 17:57:11;;;;;;;27.00;11.53;;;;;;;9.49;43.33;95778.94;10328101;28;20049;-73
2021/03/03 18:02:12;;;;;;;28.02;13.18;;;;;;;9.36;44.30;95785.44;10327018;28;20761;-73
2021/03/03 18:07:12;;;;;;;27.08;11.00;;;;;;;9.34;44.40;95774.94;10325270;28;20024;-73
2021/03/03 18:12:14;;;;;;;25.23;10.98;;;;;;;9.33;44.77;95769.81;10285921;28;20065;-73
2021/03/03 18:17:14;;;;;;;28.92;11.68;;;;;;;9.32;44.72;95779.75;10286757;28;20027;-72
2021/03/03 18:22:14;;;;;;;28.30;12.33;;;;;;;9.19;45.32;95790.75;10285616;28;20425;-73
2021/03/03 18:27:15;;;;;;;28.20;11.57;;;;;;;9.10;45.80;95792.97;10313225;28;20271;-72
2021/03/03 18:32:15;;;;;;;30.60;13.50;;;;;;;9.05;46.46;95785.63;10325824;28;20295;-72
2021/03/03 18:37:16;;;;;;;34.73;15.87;;;;;;;9.03;47.05;95789.63;10325956;28;20034;-72
2021/03/03 18:42:18;;;;;;;33.90;14.57;;;;;;;8.93;47.56;95786.72;10326104;28;20749;-72
2021/03/03 18:47:18;;;;;;;24.73;11.82;;;;;;;8.98;48.36;95793.00;10326036;28;20030;-73
2021/03/03 18:52:18;;;;;;;36.80;13.40;;;;;;;8.95;48.62;95790.00;10324809;28;20058;-72
2021/03/03 18:57:19;;;;;;;27.52;13.82;;;;;;;8.81;49.45;95800.16;10325344;28;20290;-72
2021/03/03 19:02:19;;;;;;;28.77;13.75;;;;;;;8.72;50.95;95791.63;10295939;28;20487;-73
2021/03/03 19:07:21;;;;;;;34.78;14.40;;;;;;;8.80;52.67;95787.78;10284062;28;20035;-72
2021/03/03 19:12:21;;;;;;;30.55;13.75;;;;;;;8.62;53.19;95786.88;10284119;28;20478;-72
2021/03/03 19:17:23;;;;;;;27.27;11.85;;;;;;;8.50;50.92;95788.78;10318724;28;20030;-72
2021/03/03 19:22:24;;;;;;;26.17;12.95;;;;;;;8.47;50.37;95790.03;10322611;28;20066;-72
2021/03/03 19:27:24;;;;;;;33.08;14.25;;;;;;;8.49;49.96;95787.94;10323457;28;20041;-72
2021/03/03 19:32:25;;;;;;;27.70;15.25;;;;;;;8.31;51.63;95791.50;10323546;28;20034;-72
2021/03/03 19:37:26;;;;;;;31.98;13.80;;;;;;;8.16;51.80;95791.16;10322889;28;20034;-72
2021/03/03 19:42:27;;;;;;;34.83;15.13;;;;;;;8.09;51.94;95788.59;10335562;28;20539;-73
2021/03/03 19:47:27;;;;;;;44.35;16.48;;;;;;;7.85;53.15;95793.09;10364130;28;20028;-72
2021/03/03 19:52:28;;;;;;;38.42;18.55;;;;;;;7.73;53.87;95789.56;10363392;28;20057;-72
2021/03/03 19:57:28;;;;;;;37.17;17.13;;;;;;;7.62;54.74;95789.31;10293453;28;20022;-72
2021/03/03 20:02:29;;;;;;;42.10;17.00;;;;;;;7.54;54.74;95789.63;10288593;28;20031;-71
2021/03/03 20:07:29;;;;;;;37.03;18.77;;;;;;;7.43;55.73;95785.06;10330637;28;20127;-72
2021/03/03 20:12:29;;;;;;;43.70;17.73;;;;;;;7.27;57.65;95789.16;10363018;28;20466;-72
2021/03/03 20:17:30;;;;;;;38.60;17.83;;;;;;;7.22;58.09;95797.88;10363760;28;20022;-72
2021/03/03 20:22:30;;;;;;;40.78;17.85;;;;;;;7.16;57.42;95794.25;10359667;28;20037;-72
2021/03/03 20:27:31;;;;;;;42.70;19.30;;;;;;;6.99;60.39;95804.75;10347445;28;20083;-72
2021/03/03 20:32:31;;;;;;;39.13;17.87;;;;;;;6.89;58.21;95807.09;10367960;28;20448;-72
2021/03/03 20:37:32;;;;;;;36.85;18.52;;;;;;;6.74;61.36;95796.81;10371131;28;20296;-72
2021/03/03 20:42:32;;;;;;;41.42;19.02;;;;;;;6.58;65.66;95800.88;10370371;28;20052;-72
2021/03/03 20:47:33;;;;;;;34.97;18.02;;;;;;;6.61;63.70;95788.94;10370561;28;20038;-72
2021/03/03 20:52:34;;;;;;;36.45;17.08;;;;;;;6.48;60.71;95792.56;10321945;28;20413;-72
2021/03/03 20:57:34;;;;;;;49.53;18.90;;;;;;;6.31;63.55;95794.97;10287815;28;20383;-72
2021/03/03 21:02:35;;;;;;;46.35;19.98;;;;;;;6.14;64.52;95789.41;10321178;28;20100;-74
2021/03/03 21:07:37;;;;;;;33.60;16.98;;;;;;;6.18;62.37;95795.91;10362119;28;20035;-74
2021/03/03 21:12:40;;;;;;;32.28;17.25;;;;;;;6.20;62.83;95780.50;10349674;28;20030;-74
2021/03/03 21:17:41;;;;;;;23.85;12.10;;;;;;;6.22;57.34;95782.94;10368782;28;20033;-75
2021/03/03 21:22:41;;;;;;;31.73;11.50;;;;;;;6.18;56.18;95769.22;10292805;28;20050;-74
2021/03/03 21:27:42;;;;;;;26.50;11.60;;;;;;;6.09;55.56;95766.00;10287868;28;20041;-74
2021/03/03 21:32:42;;;;;;;24.07;12.67;;;;;;;6.01;57.04;95776.97;10287598;28;20026;-74
2021/03/03 21:37:43;;;;;;;22.55;10.88;;;;;;;5.98;56.19;95775.53;10287182;28;20302;-74
2021/03/03 21:42:44;;;;;;;24.15;11.38;;;;;;;5.96;56.78;95774.13;10286329;28;20035;-74
2021/03/03 21:47:44;;;;;;;21.67;10.25;;;;;;;5.87;56.64;95768.22;10287236;28;20031;-76
2021/03/03 21:52:45;;;;;;;20.15;8.93;;;;;;;5.78;56.91;95770.34;10287182;28;20035;-76
2021/03/03 21:57:45;;;;;;;30.27;8.53;;;;;;;5.58;58.12;95762.50;10286910;28;20045;-76
2021/03/03 22:02:45;;;;;;;14.27;8.13;;;;;;;5.42;59.48;95766.50;10286141;28;20027;-76
2021/03/03 22:07:46;;;;;;;24.85;9.88;;;;;;;5.30;61.00;95755.72;10286400;28;20042;-76
2021/03/03 22:12:46;;;;;;;18.77;8.20;;;;;;;5.00;63.41;95762.63;10286330;28;20027;-76
2021/03/03 22:17:48;;;;;;;18.10;9.88;;;;;;;4.77;66.24;95763.94;10285707;28;20061;-76
2021/03/03 22:22:48;;;;;;;19.55;8.73;;;;;;;4.66;67.12;95765.44;10286247;28;20486;-76
2021/03/03 22:27:49;;;;;;;18.70;9.13;;;;;;;4.62;67.90;95758.91;10286097;28;20030;-76
2021/03/03 22:32:49;;;;;;;18.53;8.90;;;;;;;4.58;67.14;95755.03;10284704;28;20035;-76
2021/03/03 22:37:49;;;;;;;19.73;9.75;;;;;;;4.48;67.54;95755.47;10283378;28;20098;-76
2021/03/03 22:42:50;;;;;;;21.50;8.93;;;;;;;4.52;68.45;95751.34;10283498;28;20034;-75
2021/03/03 22:47:50;;;;;;;24.63;10.17;;;;;;;4.53;67.82;95755.63;10284814;28;20026;-76
2021/03/03 22:52:51;;;;;;;21.57;8.27;;;;;;;4.61;66.40;95738.63;10284259;28;20277;-76
2021/03/03 22:57:51;;;;;;;17.83;8.17;;;;;;;4.68;64.97;95738.59;10284597;28;20037;-76
2021/03/03 23:02:52;;;;;;;18.70;7.90;;;;;;;4.71;63.99;95731.00;10284015;28;20657;-76